Friday, May 06, 2016
11:11 UTC
  |  Log In   |  Register Free
Airport Search:

New Richmond Regional Airport
(KRNH)

New Richmond Regional Airport Diagram
No Airport Diagram Available

FAA data valid effective Mar 31 2016 - May 26 2016 (unless otherwise noted).

 
 
 
 
 
 
 
 
 
 
 
 
 
 
Current Aviation Weather for KRNH

Weather Summary


The most recent METAR observation for RNH was updated at: 12:55 UTC
METAR for KRNH is not available. Closest METAR is for KOEO
KRNH  (most recent observation was updatred at 60:95 UTC)
060955Z AUTO 00000KT 10SM CLR 09/05 A2986 RMK AO2 T00920054

KOEO  (11.6 nm SE)   (most recent observation was updated at 60:95 UTC)
060955Z AUTO 00000KT 10SM CLR 11/07 A2987 RMK AO2 T01100065

K21D  (16.2 nm NE)   (most recent observation was updated at 61:01 UTC)
061014Z AUTO 26004KT 10SM CLR 15/06 A2986 RMK AO2

TAF for KRNH is not available.
KRNH
060540Z 0606/0706 22008KT P6SM SKC FM061300 24006KT P6SM FEW250 FM061800 24013G20KT P6SM SCT250 FM070100 27010KT P6SM BKN200

KMSP  (33.1 nm NE)   (most recent observation was updatred at 60:90 UTC)
AMD 060901Z 0609/0712 22006KT P6SM SKC FM061800 23015G23KT P6SM FEW250 FM070100 27007KT P6SM VCSH FEW120 SCT250 PROB30 0702/0706 -TSRA BKN070CB OVC200 FM070600 34009KT P6SM BKN120
GlobalAir.com is loading additional information.
 Current Weather at RNH
49.0 F° (9.2 C°)

North winds at 0.0 mph
Pressure:
29.86 in
Humidity:
77%
Wind:
North at 0.0 mph
Dew Point:
41.7 F° (5.4 C°)
Visibility:
10.00 mi
RNH NOAA Radar




Find All Airport Services Find A Hotel Find A Rental Car Find A Golf Course Find A Restaurant $100 Hamburger



Airport Weather Forecast for KRNH

Translated METAR for KRNH (0955 UTC)
METAR:
KRNH 060955Z AUTO 00000KT 10SM CLR 09/05 A2986 RMK AO2 T00920054
Conditions at:
KRNH (New Richmond Rgnl, WI) observed 0955 UTC 06 May 2016
Temperature:
9°C (48.2°F)
Dewpoint:
5°C (41°F) [RH = 76]
Pressure:
29.86 inches Hg (1011.2 mb)
Winds:
from the N (000 degrees) at 0 mph (0 knots: 0 m/s)
Visibility:
10 mile(s)
Ceiling:
at least 12,000 feet AGL
Clouds:
Clear below 12,000 feet AGL
Remarks:
site is un-manned
site is automated and HAS a precipitation sensor

Translated TAF for KRNH (New Richmond Rgnl, WI) (0540 UTC)
TAF text:
KRNH 060540Z 0606/0706 22008KT P6SM SKC
Forecast period:
Friday May 06 2016 06:00 UTC - Saturday May 07 2016 06:00 UTC
Forecast type:
FROM: standard forecast or significant change
Winds:
from the SW (220 degrees) at 9.2 mph (8 knots: 4.1 m/s)
Visibility:
6 or more mile(s) (9.7+ km)
Ceiling:
at least 12,000 feet AGL
Clouds:
Clear Skies
Weather:
no significant weather observed at this time
TAF text:
FM061300 24006KT P6SM FEW250
Forecast period:
Friday May 06 2016 13:00 UTC - Friday May 06 2016 18:00 UTC
Forecast type:
FROM: standard forecast or significant change
Winds:
from the WSW (240 degrees) at 6.9 mph (6 knots: 3.1 m/s)
Visibility:
6 or more mile(s) (9.7+ km)
Ceiling:
at least 12,000 feet AGL
Clouds:
Few Clouds at 25,000 feet AGL
Weather:
no significant weather observed at this time
TAF text:
FM061800 24013G20KT P6SM SCT250
Forecast period:
Friday May 06 2016 18:00 UTC - Saturday May 07 2016 01:00 UTC
Forecast type:
FROM: standard forecast or significant change
Winds:
from the WSW (240 degrees) at 15 mph (13 knots: 6.7 m/s)
gusting to 23 mph (20 knots: 10.3 m/s)
Visibility:
6 or more mile(s) (9.7+ km)
Ceiling:
at least 12,000 feet AGL
Clouds:
Scattered Clouds at 25,000 feet AGL
Weather:
no significant weather observed at this time
TAF text:
FM070100 27010KT P6SM BKN200
Forecast period:
Saturday May 07 2016 01:00 UTC - Saturday May 07 2016 06:00 UTC
Forecast type:
FROM: standard forecast or significant change
Winds:
from the W (270 degrees) at 11.5 mph (10 knots: 5.1 m/s)
Visibility:
6 or more mile(s) (9.7+ km)
Ceiling:
20,000 feet AGL
Clouds:
Broken Cloud Cover at 20,000 feet AGL
Weather:
no significant weather observed at this time
FBO's on the Field
FBO Company Facility Photos Services Transportation Aviation Fuel Prices: Prices include tax
Catering Weather Repair Courtesy Rental Type 100LL JetA JetA+ MOGAS 8087
 
Griggs Aviation

This FBO has not yet been rated
FS:Independent
Last Updated: Apr-18
Login to update fuel prices
SS:
Contact Griggs AviationMore FBO Information
 
Add another FBO Facility Photos Catering Weather Repair Courtesy Rental Type 100LL JetA JetA+ MOGAS 8087
Services Transportation Aviation Fuel Prices: Prices include tax


model-print
model-print
model-print
model-print